Hobbs, NM

1:23 PM MDT on September 20, 2014 (GMT -0600)
NW Hobbs NM | Change Station
CLOSE
Current Station
Personal Weather Station
Location: Hobbs, NM
Elevation: 3637 ft
Nearby Weather Stations

Elev 3637 ft 32.74 °N, 103.15 °W | Updated 5 seconds ago

Mostly Cloudy
Mostly Cloudy
78.0 °F
Feels Like 80 °F
N
5.0
Wind Variable Wind from ENE
Gusts 9.0 mph

Today
High -- | Low -- °F
--% Chance of Precip.
Yesterday
High -- | Low -- °F
Precip. -- in
6:39 AM 6:51 PM
Waning Crescent, 11% visible
Pressure 30.09 in
Visibility 10.0 miles
Clouds Mostly Cloudy 2400 ft
Mostly Cloudy 9500 ft
Heat Index 80 °F
Dew Point 68 °F
Humidity 71%
Rainfall 0.00 in
Snow Depth 0 in , 0 in , 1 in
UV 5 out of 12
Pollen 8.40 out of 12
Air Quality Not available.
Flu Activity Not available.
METAR KHOB 201850Z 02006KT 10SM BKN024 BKN095 25/20 A3009

More Conditions Fewer Conditions

Pressure 30.09 in
Visibility 10.0 miles
Clouds Mostly Cloudy 2400 ft
Mostly Cloudy 9500 ft
Heat Index 80 °F
Dew Point 68 °F
Humidity 71%
Rainfall 0.00 in
Snow Depth 0 in , 0 in , 1 in
UV 5 out of 12
Pollen 8.40 out of 12
Air Quality Not available.
Flu Activity Not available.
METAR KHOB 201850Z 02006KT 10SM BKN024 BKN095 25/20 A3009

More Conditions Fewer Conditions

10-Day Weather Forecast

Almanac

Astronomy

Sep. 20, 2014 Rise Set
Actual Time 6:39 AM MDT 6:51 PM MDT
Civil Twilight 6:14 AM MDT 7:16 PM MDT
Nautical Twilight 5:46 AM MDT 7:45 PM MDT
Astronomical Twilight 5:17 AM MDT 8:14 PM MDT
Moon 3:29 AM MDT 4:49 PM MDT
Length of Visible Light 13h 01m
Length of Day
12h 12m
Tomorrow will be 2m 0s shorter.
Waning Crescent, 11% of the Moon is Illuminated
Today
Waning Crescent
Sep 24
New
Oct 1
First Quarter
Oct 8
Full
Oct 15
Last Quarter

Today's Extremes

State Highs State Lows

Community

WunderPhotos

Upload Photos

1,754,927 photos uploaded!

WunderBlogs® & News

Nearby

Snow Depth

Station Depth Elevation
Silver Creek Divide 0 in 9000 ft
North Costilla 0 in 10600 ft
Wesner Springs 1 in 11120 ft
Red River Pass #2 0 in 9850 ft
Quemazon 0 in 9500 ft

Earthquake Activity

City Distance Mag. Time & Date
No recent earthquake activity has been reported nearby.
Minimum magnitude displayed is 2.5.

Coastal Water Temperatures

Place Temperature
No Stations Reporting

Nearby Weather Stations